createdAt,value
2023-03-07T00:01:21.859Z,90.57
2023-03-07T00:03:48.886Z,90.24
2023-03-07T00:06:15.767Z,90.36
2023-03-07T00:08:42.693Z,90.42
2023-03-07T00:11:09.592Z,90.17
2023-03-07T00:13:37.730Z,90.47
2023-03-07T00:16:07.757Z,90.56
2023-03-07T00:18:35.361Z,90.79
2023-03-07T00:21:06.157Z,90.65
2023-03-07T00:23:33.851Z,90.63
2023-03-07T00:26:01.852Z,90.70
2023-03-07T00:28:29.152Z,90.92
2023-03-07T00:30:59.398Z,90.74
2023-03-07T00:33:26.336Z,90.51
2023-03-07T00:35:54.863Z,90.32
2023-03-07T00:38:21.736Z,89.97
2023-03-07T00:40:56.190Z,90.04
2023-03-07T00:43:23.120Z,89.92
2023-03-07T00:45:50.081Z,89.95
2023-03-07T00:48:18.445Z,90.11
2023-03-07T00:50:45.462Z,90.42
2023-03-07T00:53:12.312Z,90.47
2023-03-07T00:55:39.357Z,90.25
2023-03-07T00:58:06.170Z,89.90
2023-03-07T01:00:33.182Z,89.51
2023-03-07T01:03:04.494Z,90.50
2023-03-07T01:05:31.319Z,90.37
2023-03-07T01:07:58.188Z,90.09
2023-03-07T01:10:27.200Z,90.22
2023-03-07T01:12:54.201Z,90.49
2023-03-07T01:15:21.158Z,90.13
2023-03-07T01:17:47.995Z,89.17
2023-03-07T01:20:14.814Z,89.87
2023-03-07T01:22:41.666Z,90.22
2023-03-07T01:25:08.931Z,90.33
2023-03-07T01:27:35.888Z,90.36
2023-03-07T01:30:02.825Z,89.97
2023-03-07T01:32:29.673Z,90.38
2023-03-07T01:34:56.636Z,87.75
2023-03-07T01:37:23.633Z,86.92
2023-03-07T01:39:52.972Z,87.76
2023-03-07T01:42:20.313Z,88.46
2023-03-07T01:44:50.181Z,87.26
2023-03-07T01:47:17.064Z,87.93
2023-03-07T01:49:46.492Z,88.27
2023-03-07T01:52:15.256Z,88.10
2023-03-07T01:54:49.222Z,87.63
2023-03-07T01:57:18.732Z,88.02
2023-03-07T01:59:47.637Z,88.59
2023-03-07T02:02:17.432Z,87.23
2023-03-07T02:04:45.643Z,88.14
2023-03-07T02:07:14.084Z,88.92
2023-03-07T02:09:41.096Z,87.03
2023-03-07T02:12:08.455Z,86.50
2023-03-07T02:14:35.569Z,85.13
2023-03-07T02:17:03.059Z,85.14
2023-03-07T02:19:41.164Z,85.28
2023-03-07T02:22:09.982Z,86.56
2023-03-07T02:24:41.244Z,87.83
2023-03-07T02:27:08.188Z,87.96
2023-03-07T02:29:35.073Z,88.06
2023-03-07T02:32:02.026Z,88.85
2023-03-07T02:34:30.989Z,88.16
2023-03-07T02:37:00.858Z,88.97
2023-03-07T02:39:30.536Z,89.03
2023-03-07T02:42:01.045Z,88.40
2023-03-07T02:44:27.858Z,88.00
2023-03-07T02:46:54.761Z,88.15
2023-03-07T02:49:21.667Z,88.74
2023-03-07T02:51:48.564Z,89.82
2023-03-07T02:54:15.400Z,90.49
2023-03-07T02:56:42.388Z,91.03
2023-03-07T02:59:09.279Z,91.12
2023-03-07T03:01:36.671Z,90.28
2023-03-07T03:04:03.871Z,89.34
2023-03-07T03:06:30.675Z,89.70
2023-03-07T03:08:57.515Z,89.83
2023-03-07T03:11:24.362Z,89.71
2023-03-07T03:13:51.145Z,90.09
2023-03-07T03:16:18.062Z,90.21
2023-03-07T03:18:44.911Z,90.27
2023-03-07T03:21:12.416Z,90.37
2023-03-07T03:23:39.393Z,90.14
2023-03-07T03:26:08.182Z,90.07
2023-03-07T03:28:35.756Z,89.88
2023-03-07T03:31:04.395Z,88.96
2023-03-07T03:33:31.618Z,89.29
2023-03-07T03:35:59.444Z,88.62
2023-03-07T03:38:26.613Z,88.84
2023-03-07T03:40:53.488Z,89.14
2023-03-07T03:43:20.394Z,88.42
2023-03-07T03:45:50.319Z,88.14
2023-03-07T03:48:17.237Z,88.32
2023-03-07T03:50:44.062Z,89.57
2023-03-07T03:53:10.964Z,88.75
2023-03-07T03:55:37.782Z,89.21
2023-03-07T03:58:04.869Z,89.53
2023-03-07T04:00:31.659Z,89.70
2023-03-07T04:02:58.735Z,90.11
2023-03-07T04:05:25.670Z,90.23
2023-03-07T04:07:52.483Z,89.88
2023-03-07T04:10:19.684Z,88.65
2023-03-07T04:12:47.033Z,88.24
2023-03-07T04:15:13.993Z,88.60
2023-03-07T04:17:40.831Z,89.05
2023-03-07T04:20:13.793Z,89.40
2023-03-07T04:22:40.913Z,89.29
2023-03-07T04:25:07.953Z,88.48
2023-03-07T04:27:35.537Z,88.96
2023-03-07T04:30:02.407Z,89.20
2023-03-07T04:32:29.352Z,88.40
2023-03-07T04:34:56.209Z,88.90
2023-03-07T04:37:23.330Z,89.98
2023-03-07T04:39:50.234Z,90.39
2023-03-07T04:42:17.215Z,91.10
2023-03-07T04:44:44.100Z,90.33
2023-03-07T04:47:10.984Z,89.17
2023-03-07T04:49:37.815Z,89.09
2023-03-07T04:52:05.836Z,89.41
2023-03-07T04:54:32.749Z,89.63
2023-03-07T04:56:59.636Z,89.27
2023-03-07T04:59:26.463Z,89.36
2023-03-07T05:01:53.396Z,89.31
2023-03-07T05:04:20.344Z,89.47
2023-03-07T05:06:47.222Z,89.56
2023-03-07T05:09:14.101Z,90.00
2023-03-07T05:11:40.996Z,90.73
2023-03-07T05:14:08.125Z,90.65
2023-03-07T05:16:34.960Z,90.63
2023-03-07T05:19:02.103Z,90.66
2023-03-07T05:21:29.384Z,89.45
2023-03-07T05:23:56.253Z,89.57
2023-03-07T05:26:23.219Z,90.29
2023-03-07T05:28:50.044Z,90.76
2023-03-07T05:31:18.463Z,91.00
2023-03-07T05:33:45.536Z,91.21
2023-03-07T05:36:12.431Z,90.90
2023-03-07T05:38:39.484Z,90.53
2023-03-07T05:41:06.683Z,90.81
2023-03-07T05:43:33.528Z,90.68
2023-03-07T05:46:00.405Z,89.92
2023-03-07T05:48:27.490Z,89.86
2023-03-07T05:50:54.580Z,90.13
2023-03-07T05:53:21.433Z,90.04
2023-03-07T05:55:48.258Z,89.85
2023-03-07T05:58:15.151Z,89.78
2023-03-07T06:00:42.066Z,89.28
2023-03-07T06:03:09.019Z,89.54
2023-03-07T06:05:35.886Z,89.67
2023-03-07T06:08:02.977Z,90.31
2023-03-07T06:10:29.836Z,90.76
2023-03-07T06:12:56.727Z,90.55
2023-03-07T06:15:24.834Z,90.65
2023-03-07T06:17:53.130Z,90.34
2023-03-07T06:20:21.564Z,90.34
2023-03-07T06:22:48.443Z,90.39
2023-03-07T06:25:17.172Z,90.50
2023-03-07T06:27:44.357Z,90.72
2023-03-07T06:30:12.767Z,91.69
2023-03-07T06:32:39.954Z,91.08
2023-03-07T06:35:07.263Z,90.46
2023-03-07T06:37:34.325Z,90.49
2023-03-07T06:40:01.388Z,91.06
2023-03-07T06:42:28.505Z,91.29
2023-03-07T06:44:55.476Z,91.66
2023-03-07T06:47:23.094Z,91.12
2023-03-07T06:49:49.975Z,91.17
2023-03-07T06:52:16.997Z,91.37
2023-03-07T06:54:44.046Z,91.29
2023-03-07T06:57:11.251Z,90.79
2023-03-07T06:59:38.202Z,91.22
2023-03-07T07:02:05.891Z,90.54
2023-03-07T07:04:33.233Z,90.50
2023-03-07T07:07:00.176Z,92.11
2023-03-07T07:09:27.126Z,93.04
2023-03-07T07:11:54.102Z,93.07
2023-03-07T07:14:22.260Z,92.83
2023-03-07T07:16:49.397Z,92.11
2023-03-07T07:19:16.453Z,91.55
2023-03-07T07:21:43.558Z,90.96
2023-03-07T07:24:13.992Z,91.31
2023-03-07T07:26:41.369Z,91.12
2023-03-07T07:29:08.330Z,91.15
2023-03-07T07:31:35.583Z,91.48
2023-03-07T07:34:02.762Z,90.90
2023-03-07T07:36:30.227Z,91.02
2023-03-07T07:38:57.244Z,91.22
2023-03-07T07:41:24.668Z,91.29
2023-03-07T07:43:53.431Z,90.86
2023-03-07T07:46:20.671Z,90.91
2023-03-07T07:48:48.230Z,91.03
2023-03-07T07:51:15.296Z,90.97
2023-03-07T07:53:42.467Z,91.04
2023-03-07T07:56:09.699Z,90.40
2023-03-07T07:58:37.000Z,89.54
2023-03-07T08:01:07.284Z,88.93
2023-03-07T08:03:34.382Z,88.87
2023-03-07T08:06:01.499Z,88.42
2023-03-07T08:08:28.765Z,89.58
2023-03-07T08:10:55.746Z,99.13
2023-03-07T08:13:22.946Z,95.50
2023-03-07T08:15:50.023Z,91.66
2023-03-07T08:18:17.079Z,89.46
2023-03-07T08:20:44.452Z,89.12
2023-03-07T08:23:13.856Z,88.72
2023-03-07T08:25:40.912Z,89.56
2023-03-07T08:28:07.968Z,90.03
2023-03-07T08:30:36.375Z,89.23
2023-03-07T08:33:04.283Z,88.66
2023-03-07T08:35:31.695Z,87.16
2023-03-07T08:38:01.289Z,87.00
2023-03-07T08:40:29.651Z,85.92
2023-03-07T08:42:56.718Z,85.74
2023-03-07T08:45:24.297Z,85.00
2023-03-07T08:47:53.556Z,85.43
2023-03-07T08:50:21.571Z,85.26
2023-03-07T08:52:49.022Z,84.70
2023-03-07T08:55:17.327Z,85.21
2023-03-07T08:57:46.452Z,84.01
2023-03-07T09:00:14.675Z,83.76
2023-03-07T09:02:42.202Z,82.89
2023-03-07T09:05:10.154Z,83.44
2023-03-07T09:07:37.677Z,83.66
2023-03-07T09:10:06.690Z,83.32
2023-03-07T09:12:37.172Z,83.21
2023-03-07T09:15:04.597Z,83.74
2023-03-07T09:17:31.889Z,83.58
2023-03-07T09:19:58.901Z,83.30
2023-03-07T09:22:27.596Z,83.21
2023-03-07T09:24:55.019Z,83.71
2023-03-07T09:27:23.152Z,83.87
2023-03-07T09:29:50.844Z,84.33
2023-03-07T09:32:18.232Z,83.87
2023-03-07T09:34:45.722Z,84.48
2023-03-07T09:37:12.977Z,82.19
2023-03-07T09:39:40.434Z,82.17
2023-03-07T09:42:11.231Z,83.06
2023-03-07T09:44:41.564Z,83.45
2023-03-07T09:47:17.390Z,83.37
2023-03-07T09:49:47.449Z,82.55
2023-03-07T09:52:17.155Z,82.27
2023-03-07T09:54:47.161Z,81.53
2023-03-07T09:57:18.074Z,82.17
2023-03-07T09:59:46.885Z,82.63
2023-03-07T10:02:17.241Z,81.98
2023-03-07T10:04:47.626Z,81.61
2023-03-07T10:07:15.963Z,82.27
2023-03-07T10:09:44.515Z,82.63
2023-03-07T10:12:18.565Z,81.36
2023-03-07T10:14:49.051Z,80.60
2023-03-07T10:17:16.612Z,79.56
2023-03-07T10:19:47.185Z,81.29
2023-03-07T10:22:15.210Z,81.49
2023-03-07T10:24:43.716Z,79.74
2023-03-07T10:27:14.126Z,80.24
2023-03-07T10:29:47.653Z,80.20
2023-03-07T10:32:17.741Z,80.05
2023-03-07T10:34:46.047Z,79.44
2023-03-07T10:37:16.867Z,79.21
2023-03-07T10:39:47.117Z,77.91
2023-03-07T10:42:15.875Z,78.55
2023-03-07T10:44:46.082Z,78.68
2023-03-07T10:47:19.510Z,79.21
2023-03-07T10:49:48.033Z,80.90
2023-03-07T10:52:18.741Z,79.81
2023-03-07T10:54:45.739Z,78.90
2023-03-07T10:57:15.552Z,78.86
2023-03-07T10:59:44.905Z,78.81
2023-03-07T11:02:15.129Z,79.92
2023-03-07T11:04:44.801Z,78.59
2023-03-07T11:07:15.112Z,77.22
2023-03-07T11:09:45.451Z,73.93
2023-03-07T11:12:14.341Z,73.04
2023-03-07T11:14:47.914Z,73.59
2023-03-07T11:17:18.258Z,74.26
2023-03-07T11:19:46.398Z,73.51
2023-03-07T11:22:16.749Z,73.28
2023-03-07T11:24:48.501Z,73.17
2023-03-07T11:27:21.465Z,73.45
2023-03-07T11:30:06.599Z,73.54
2023-03-07T11:32:35.036Z,73.95
2023-03-07T11:35:07.077Z,74.00
2023-03-07T11:37:37.559Z,73.17
2023-03-07T11:40:07.785Z,73.43
2023-03-07T11:42:37.742Z,72.75
2023-03-07T11:45:07.823Z,71.18
2023-03-07T11:47:37.769Z,72.45
2023-03-07T11:50:05.803Z,73.34
2023-03-07T11:52:35.796Z,71.53
2023-03-07T11:55:06.032Z,71.98
2023-03-07T11:57:33.585Z,72.08
2023-03-07T12:00:16.126Z,70.34
2023-03-07T12:02:46.949Z,69.34
2023-03-07T12:05:20.921Z,69.54
2023-03-07T12:07:51.628Z,69.45
2023-03-07T12:10:29.403Z,69.24
2023-03-07T12:13:01.101Z,69.27
2023-03-07T12:15:31.373Z,69.35
2023-03-07T12:18:04.282Z,69.63
2023-03-07T12:20:38.279Z,69.74
2023-03-07T12:23:11.232Z,69.85
2023-03-07T12:25:38.915Z,68.91
2023-03-07T12:28:09.409Z,68.67
2023-03-07T12:30:39.889Z,68.84
2023-03-07T12:33:07.094Z,68.20
2023-03-07T12:35:44.351Z,67.17
2023-03-07T12:38:12.119Z,66.49
2023-03-07T12:40:42.445Z,66.11
2023-03-07T12:43:12.816Z,66.62
2023-03-07T12:45:46.698Z,67.24
2023-03-07T12:48:17.075Z,64.67
2023-03-07T12:50:45.634Z,65.04
2023-03-07T12:53:22.846Z,66.61
2023-03-07T12:55:56.287Z,64.75
2023-03-07T12:58:26.854Z,63.95
2023-03-07T13:00:58.127Z,64.32
2023-03-07T13:03:28.510Z,64.73
2023-03-07T13:05:55.794Z,63.86
2023-03-07T13:08:24.288Z,63.34
2023-03-07T13:10:52.361Z,63.85
2023-03-07T13:13:22.304Z,64.96
2023-03-07T13:15:52.534Z,65.68
2023-03-07T13:18:22.763Z,64.30
2023-03-07T13:21:07.319Z,61.92
2023-03-07T13:23:34.538Z,63.35
2023-03-07T13:26:03.954Z,65.30
2023-03-07T13:28:32.757Z,66.44
2023-03-07T13:31:08.722Z,68.60
2023-03-07T13:33:36.187Z,69.41
2023-03-07T13:36:03.496Z,71.58
2023-03-07T13:38:32.574Z,71.90
2023-03-07T13:41:00.714Z,72.42
2023-03-07T13:43:28.584Z,72.11
2023-03-07T13:45:58.857Z,73.48
2023-03-07T13:48:29.292Z,74.51
2023-03-07T13:50:58.038Z,75.51
2023-03-07T13:53:28.741Z,75.56
2023-03-07T13:55:58.698Z,74.64
2023-03-07T13:58:26.433Z,74.88
2023-03-07T14:00:56.880Z,72.33
2023-03-07T14:03:27.723Z,68.98
2023-03-07T14:05:56.082Z,70.03
2023-03-07T14:08:25.244Z,70.40
2023-03-07T14:10:52.257Z,71.51
2023-03-07T14:13:25.396Z,71.57
2023-03-07T14:15:55.850Z,71.18
2023-03-07T14:18:26.261Z,70.75
2023-03-07T14:20:56.585Z,69.99
2023-03-07T14:23:23.915Z,71.32
2023-03-07T14:25:52.854Z,71.53
2023-03-07T14:28:23.629Z,72.29
2023-03-07T14:30:53.728Z,72.20
2023-03-07T14:33:21.405Z,72.81
2023-03-07T14:35:48.638Z,73.59
2023-03-07T14:38:18.916Z,74.15
2023-03-07T14:40:52.919Z,73.74
2023-03-07T14:43:20.562Z,73.88
2023-03-07T14:45:50.999Z,72.26
2023-03-07T14:48:18.784Z,70.26
2023-03-07T14:50:46.272Z,71.87
2023-03-07T14:53:17.291Z,72.14
2023-03-07T14:55:45.534Z,70.44
2023-03-07T14:58:15.912Z,71.02
2023-03-07T15:00:43.226Z,72.05
2023-03-07T15:03:13.056Z,71.52
2023-03-07T15:05:43.636Z,72.30
2023-03-07T15:08:13.845Z,71.28
2023-03-07T15:10:43.404Z,71.46
2023-03-07T15:13:19.266Z,71.89
2023-03-07T15:15:49.939Z,71.71
2023-03-07T15:18:20.671Z,70.91
2023-03-07T15:20:48.379Z,71.47
2023-03-07T15:23:20.150Z,70.63
2023-03-07T15:25:47.856Z,70.63
2023-03-07T15:28:18.212Z,70.25
2023-03-07T15:30:48.898Z,70.50
2023-03-07T15:33:17.243Z,70.24
2023-03-07T15:35:48.045Z,68.18
2023-03-07T15:38:17.117Z,70.54
2023-03-07T15:40:44.694Z,71.19
2023-03-07T15:43:15.965Z,71.77
2023-03-07T15:45:44.306Z,71.95
2023-03-07T15:48:14.529Z,69.81
2023-03-07T15:50:42.023Z,69.07
2023-03-07T15:53:10.831Z,69.96
2023-03-07T15:55:38.976Z,71.82
2023-03-07T15:58:12.361Z,69.58
2023-03-07T16:00:40.842Z,70.02
2023-03-07T16:03:11.193Z,70.88
2023-03-07T16:05:38.528Z,70.56
2023-03-07T16:08:10.045Z,70.63
2023-03-07T16:10:40.278Z,71.83
2023-03-07T16:13:11.218Z,71.78
2023-03-07T16:15:38.276Z,70.16
2023-03-07T16:18:05.611Z,68.25
2023-03-07T16:20:32.921Z,69.82
2023-03-07T16:23:00.106Z,70.54
2023-03-07T16:25:30.130Z,69.91
2023-03-07T16:27:58.709Z,70.15
2023-03-07T16:30:27.521Z,71.79
2023-03-07T16:32:55.029Z,71.29
2023-03-07T16:35:24.763Z,71.16
2023-03-07T16:37:52.344Z,70.81
2023-03-07T16:40:20.856Z,70.30
2023-03-07T16:42:49.075Z,69.47
2023-03-07T16:45:19.401Z,70.66
2023-03-07T16:47:47.481Z,70.43
2023-03-07T16:50:16.189Z,70.21
2023-03-07T16:52:44.296Z,70.87
2023-03-07T16:55:13.899Z,71.56
2023-03-07T16:57:44.429Z,71.40
2023-03-07T17:00:14.863Z,72.54
2023-03-07T17:02:42.242Z,72.97
2023-03-07T17:05:15.307Z,72.72
2023-03-07T17:07:42.686Z,72.66
2023-03-07T17:10:11.159Z,72.81
2023-03-07T17:12:38.832Z,72.11
2023-03-07T17:15:07.489Z,71.66
2023-03-07T17:17:36.610Z,72.08
2023-03-07T17:20:06.376Z,72.45
2023-03-07T17:22:33.872Z,74.58
2023-03-07T17:25:02.081Z,74.74
2023-03-07T17:27:32.825Z,73.14
2023-03-07T17:30:00.665Z,72.22
2023-03-07T17:32:28.079Z,73.21
2023-03-07T17:34:55.312Z,72.79
2023-03-07T17:37:22.545Z,73.50
2023-03-07T17:39:49.875Z,72.37
2023-03-07T17:42:22.564Z,72.31
2023-03-07T17:44:51.769Z,72.95
2023-03-07T17:47:20.629Z,72.34
2023-03-07T17:49:51.014Z,73.56
2023-03-07T17:52:19.841Z,73.08
2023-03-07T17:54:48.764Z,73.19
2023-03-07T17:57:17.077Z,74.10
2023-03-07T17:59:44.524Z,73.86
2023-03-07T18:02:13.908Z,73.36
2023-03-07T18:04:41.568Z,73.02
2023-03-07T18:07:08.923Z,73.51
2023-03-07T18:09:36.233Z,73.16
2023-03-07T18:12:05.339Z,73.96
2023-03-07T18:14:34.132Z,74.17
2023-03-07T18:17:03.814Z,74.27
2023-03-07T18:19:34.017Z,74.28
2023-03-07T18:22:01.550Z,74.38
2023-03-07T18:24:30.632Z,74.81
2023-03-07T18:26:59.967Z,74.80
2023-03-07T18:29:28.682Z,75.58
2023-03-07T18:31:56.714Z,75.54
2023-03-07T18:34:25.589Z,76.51
2023-03-07T18:36:54.508Z,75.70
2023-03-07T18:39:23.240Z,76.29
2023-03-07T18:41:50.682Z,75.85
2023-03-07T18:44:19.324Z,75.60
2023-03-07T18:46:47.219Z,76.57
2023-03-07T18:49:15.422Z,76.22
2023-03-07T18:51:46.521Z,75.69
2023-03-07T18:54:14.681Z,75.93
2023-03-07T18:56:43.393Z,77.20
2023-03-07T18:59:10.930Z,77.23
2023-03-07T19:01:38.529Z,76.98
2023-03-07T19:04:06.279Z,78.16
2023-03-07T19:06:35.959Z,78.86
2023-03-07T19:09:04.185Z,79.12
2023-03-07T19:11:32.673Z,79.99
2023-03-07T19:14:01.651Z,79.37
2023-03-07T19:16:30.479Z,79.03
2023-03-07T19:19:00.765Z,78.78
2023-03-07T19:21:29.290Z,78.47
2023-03-07T19:23:58.673Z,78.17
2023-03-07T19:26:26.405Z,78.42
2023-03-07T19:28:55.076Z,80.33
2023-03-07T19:31:24.391Z,79.81
2023-03-07T19:33:53.149Z,78.81
2023-03-07T19:36:25.000Z,78.69
2023-03-07T19:38:55.360Z,78.01
2023-03-07T19:41:25.167Z,78.44
2023-03-07T19:43:52.553Z,78.69
2023-03-07T19:46:20.392Z,79.02
2023-03-07T19:48:48.148Z,78.34
2023-03-07T19:51:16.918Z,79.10
2023-03-07T19:53:44.697Z,79.34
2023-03-07T19:56:12.866Z,79.40
2023-03-07T19:58:39.906Z,78.32
2023-03-07T20:01:08.718Z,79.19
2023-03-07T20:03:37.397Z,79.40
2023-03-07T20:06:06.290Z,79.01
2023-03-07T20:08:34.891Z,78.95
2023-03-07T20:11:09.407Z,80.45
2023-03-07T20:13:37.813Z,80.30
2023-03-07T20:16:06.347Z,80.16
2023-03-07T20:18:34.386Z,80.48
2023-03-07T20:21:04.709Z,80.54
2023-03-07T20:23:33.208Z,80.35
2023-03-07T20:26:03.311Z,82.74
2023-03-07T20:28:31.436Z,83.40
2023-03-07T20:31:00.189Z,82.36
2023-03-07T20:33:27.290Z,82.11
2023-03-07T20:35:58.046Z,81.43
2023-03-07T20:38:25.394Z,81.38
2023-03-07T20:40:59.680Z,81.40
2023-03-07T20:43:26.525Z,82.44
2023-03-07T20:45:53.467Z,82.80
2023-03-07T20:48:20.512Z,83.51
2023-03-07T20:50:47.544Z,82.57
2023-03-07T20:53:14.391Z,82.84
2023-03-07T20:55:41.232Z,81.62
2023-03-07T20:58:08.348Z,81.87
2023-03-07T21:00:35.239Z,82.14
2023-03-07T21:03:05.965Z,80.32
2023-03-07T21:05:33.115Z,80.08
2023-03-07T21:08:00.180Z,79.55
2023-03-07T21:10:27.866Z,81.43
2023-03-07T21:12:54.781Z,80.92
2023-03-07T21:15:21.703Z,80.78
2023-03-07T21:17:51.232Z,79.73
2023-03-07T21:20:19.001Z,79.66
2023-03-07T21:22:48.264Z,79.74
2023-03-07T21:25:15.891Z,80.12
2023-03-07T21:27:48.134Z,80.46
2023-03-07T21:30:19.148Z,80.12
2023-03-07T21:32:46.299Z,80.35
2023-03-07T21:35:14.265Z,80.23
2023-03-07T21:37:42.653Z,80.10
2023-03-07T21:40:11.000Z,79.66
2023-03-07T21:42:38.792Z,80.38
2023-03-07T21:45:06.766Z,80.12
2023-03-07T21:47:38.030Z,80.84
2023-03-07T21:50:06.297Z,79.35
2023-03-07T21:52:33.907Z,78.91
2023-03-07T21:55:01.264Z,78.88
2023-03-07T21:57:30.163Z,78.11
2023-03-07T21:59:57.870Z,77.78
2023-03-07T22:02:24.862Z,77.54
2023-03-07T22:04:51.762Z,77.67
2023-03-07T22:07:18.882Z,77.53
2023-03-07T22:09:45.712Z,77.77
2023-03-07T22:12:12.503Z,77.87
2023-03-07T22:14:39.647Z,78.51
2023-03-07T22:17:06.427Z,77.86
2023-03-07T22:19:33.201Z,77.40
2023-03-07T22:22:00.018Z,77.33
2023-03-07T22:24:27.125Z,77.22
2023-03-07T22:26:54.027Z,78.20
2023-03-07T22:29:20.987Z,78.45
2023-03-07T22:31:48.097Z,77.99
2023-03-07T22:34:14.974Z,76.92
2023-03-07T22:36:42.035Z,76.52
2023-03-07T22:39:10.065Z,75.60
2023-03-07T22:41:37.317Z,75.55
2023-03-07T22:44:04.994Z,74.68
2023-03-07T22:46:31.796Z,75.06
2023-03-07T22:48:58.896Z,75.08
2023-03-07T22:51:26.111Z,76.30
2023-03-07T22:53:53.363Z,76.34
2023-03-07T22:56:23.406Z,75.74
2023-03-07T22:58:50.272Z,75.79
2023-03-07T23:01:20.349Z,75.86
2023-03-07T23:03:47.987Z,74.73
2023-03-07T23:06:14.998Z,74.55
2023-03-07T23:08:45.538Z,75.33
2023-03-07T23:11:13.222Z,74.88
2023-03-07T23:13:40.413Z,74.67
2023-03-07T23:16:09.244Z,74.00
2023-03-07T23:18:37.004Z,74.10
2023-03-07T23:21:06.813Z,73.30
2023-03-07T23:23:34.027Z,72.92
2023-03-07T23:26:01.212Z,73.35
2023-03-07T23:28:28.308Z,72.42
2023-03-07T23:30:55.477Z,73.29
2023-03-07T23:33:22.491Z,72.85
2023-03-07T23:35:49.337Z,73.14
2023-03-07T23:38:16.428Z,73.39
2023-03-07T23:40:43.532Z,72.55
2023-03-07T23:43:12.996Z,73.16
2023-03-07T23:45:39.959Z,73.39
2023-03-07T23:48:06.741Z,72.91
2023-03-07T23:50:33.518Z,72.88
2023-03-07T23:53:00.444Z,72.29
2023-03-07T23:55:27.338Z,72.40
2023-03-07T23:57:54.188Z,73.51
